sensor_id;sensor_type;location;lat;lon;timestamp;P1;durP1;ratioP1;P2;durP2;ratioP2
13032;SDS011;6583;42.632;23.298;2023-12-20T00:02:09;1.90;;;1.30;;
13032;SDS011;6583;42.632;23.298;2023-12-20T00:04:35;2.77;;;1.70;;
13032;SDS011;6583;42.632;23.298;2023-12-20T00:07:02;2.53;;;1.97;;
13032;SDS011;6583;42.632;23.298;2023-12-20T00:09:29;4.00;;;2.07;;
13032;SDS011;6583;42.632;23.298;2023-12-20T00:11:55;3.20;;;2.20;;
13032;SDS011;6583;42.632;23.298;2023-12-20T00:14:22;2.77;;;1.90;;
13032;SDS011;6583;42.632;23.298;2023-12-20T00:16:50;3.13;;;2.20;;
13032;SDS011;6583;42.632;23.298;2023-12-20T00:19:17;3.30;;;1.90;;
13032;SDS011;6583;42.632;23.298;2023-12-20T00:21:44;1.43;;;1.13;;
13032;SDS011;6583;42.632;23.298;2023-12-20T00:24:10;1.80;;;1.40;;
13032;SDS011;6583;42.632;23.298;2023-12-20T00:26:37;1.60;;;1.27;;
13032;SDS011;6583;42.632;23.298;2023-12-20T00:29:04;1.73;;;1.30;;
13032;SDS011;6583;42.632;23.298;2023-12-20T00:31:30;1.27;;;1.17;;
13032;SDS011;6583;42.632;23.298;2023-12-20T00:33:58;3.03;;;1.50;;
13032;SDS011;6583;42.632;23.298;2023-12-20T00:36:25;1.70;;;1.50;;
13032;SDS011;6583;42.632;23.298;2023-12-20T00:38:51;2.33;;;1.60;;
13032;SDS011;6583;42.632;23.298;2023-12-20T00:41:18;2.90;;;2.00;;
13032;SDS011;6583;42.632;23.298;2023-12-20T00:43:45;2.07;;;1.57;;
13032;SDS011;6583;42.632;23.298;2023-12-20T00:46:11;2.83;;;1.67;;
13032;SDS011;6583;42.632;23.298;2023-12-20T00:48:38;2.17;;;1.50;;
13032;SDS011;6583;42.632;23.298;2023-12-20T00:51:08;2.10;;;1.00;;
13032;SDS011;6583;42.632;23.298;2023-12-20T00:53:35;1.67;;;1.20;;
13032;SDS011;6583;42.632;23.298;2023-12-20T00:56:01;1.60;;;1.50;;
13032;SDS011;6583;42.632;23.298;2023-12-20T00:58:28;2.47;;;1.53;;
13032;SDS011;6583;42.632;23.298;2023-12-20T01:00:55;2.33;;;1.33;;
13032;SDS011;6583;42.632;23.298;2023-12-20T01:03:23;1.67;;;1.30;;
13032;SDS011;6583;42.632;23.298;2023-12-20T01:05:49;1.10;;;1.00;;
13032;SDS011;6583;42.632;23.298;2023-12-20T01:08:17;1.13;;;0.90;;
13032;SDS011;6583;42.632;23.298;2023-12-20T01:10:44;1.00;;;0.80;;
13032;SDS011;6583;42.632;23.298;2023-12-20T01:13:11;1.03;;;0.80;;
13032;SDS011;6583;42.632;23.298;2023-12-20T01:15:38;0.90;;;0.80;;
13032;SDS011;6583;42.632;23.298;2023-12-20T01:18:05;0.80;;;0.80;;
13032;SDS011;6583;42.632;23.298;2023-12-20T01:20:31;1.33;;;1.00;;
13032;SDS011;6583;42.632;23.298;2023-12-20T01:22:58;1.63;;;1.00;;
13032;SDS011;6583;42.632;23.298;2023-12-20T01:25:26;0.80;;;0.80;;
13032;SDS011;6583;42.632;23.298;2023-12-20T01:27:53;1.87;;;1.00;;
13032;SDS011;6583;42.632;23.298;2023-12-20T01:30:20;1.10;;;0.70;;
13032;SDS011;6583;42.632;23.298;2023-12-20T01:32:46;1.07;;;0.70;;
13032;SDS011;6583;42.632;23.298;2023-12-20T01:35:13;1.43;;;0.83;;
13032;SDS011;6583;42.632;23.298;2023-12-20T01:37:39;0.60;;;0.60;;
13032;SDS011;6583;42.632;23.298;2023-12-20T01:40:06;1.10;;;0.80;;
13032;SDS011;6583;42.632;23.298;2023-12-20T01:42:35;1.00;;;0.90;;
13032;SDS011;6583;42.632;23.298;2023-12-20T01:45:02;1.27;;;1.00;;
13032;SDS011;6583;42.632;23.298;2023-12-20T01:47:29;0.90;;;0.80;;
13032;SDS011;6583;42.632;23.298;2023-12-20T01:49:56;1.33;;;1.07;;
13032;SDS011;6583;42.632;23.298;2023-12-20T01:52:23;1.97;;;1.40;;
13032;SDS011;6583;42.632;23.298;2023-12-20T01:54:51;2.83;;;1.90;;
13032;SDS011;6583;42.632;23.298;2023-12-20T01:57:19;1.70;;;1.37;;
13032;SDS011;6583;42.632;23.298;2023-12-20T01:59:48;4.63;;;3.30;;
13032;SDS011;6583;42.632;23.298;2023-12-20T02:02:14;3.90;;;3.27;;
13032;SDS011;6583;42.632;23.298;2023-12-20T02:04:41;4.00;;;3.00;;
13032;SDS011;6583;42.632;23.298;2023-12-20T02:07:08;3.27;;;2.20;;
13032;SDS011;6583;42.632;23.298;2023-12-20T02:09:36;2.97;;;2.40;;
13032;SDS011;6583;42.632;23.298;2023-12-20T02:12:03;3.17;;;2.37;;
13032;SDS011;6583;42.632;23.298;2023-12-20T02:14:30;2.60;;;1.50;;
13032;SDS011;6583;42.632;23.298;2023-12-20T02:16:58;1.20;;;1.07;;
13032;SDS011;6583;42.632;23.298;2023-12-20T02:19:24;1.20;;;1.00;;
13032;SDS011;6583;42.632;23.298;2023-12-20T02:22:04;1.23;;;1.00;;
13032;SDS011;6583;42.632;23.298;2023-12-20T02:24:32;1.10;;;0.80;;
13032;SDS011;6583;42.632;23.298;2023-12-20T02:26:59;1.63;;;1.00;;
13032;SDS011;6583;42.632;23.298;2023-12-20T02:29:25;1.30;;;1.20;;
13032;SDS011;6583;42.632;23.298;2023-12-20T02:31:53;1.20;;;1.10;;
13032;SDS011;6583;42.632;23.298;2023-12-20T02:34:19;1.83;;;1.30;;
13032;SDS011;6583;42.632;23.298;2023-12-20T02:36:46;2.33;;;1.20;;
13032;SDS011;6583;42.632;23.298;2023-12-20T02:39:14;2.17;;;1.40;;
13032;SDS011;6583;42.632;23.298;2023-12-20T02:41:40;2.33;;;1.60;;
13032;SDS011;6583;42.632;23.298;2023-12-20T02:44:07;2.23;;;1.70;;
13032;SDS011;6583;42.632;23.298;2023-12-20T02:46:34;1.77;;;1.63;;
13032;SDS011;6583;42.632;23.298;2023-12-20T02:49:01;2.57;;;1.90;;
13032;SDS011;6583;42.632;23.298;2023-12-20T02:51:27;2.00;;;1.70;;
13032;SDS011;6583;42.632;23.298;2023-12-20T02:53:54;2.17;;;1.60;;
13032;SDS011;6583;42.632;23.298;2023-12-20T02:56:22;2.03;;;1.63;;
13032;SDS011;6583;42.632;23.298;2023-12-20T02:58:49;2.90;;;1.63;;
13032;SDS011;6583;42.632;23.298;2023-12-20T03:01:15;2.07;;;1.67;;
13032;SDS011;6583;42.632;23.298;2023-12-20T03:03:42;2.33;;;1.97;;
13032;SDS011;6583;42.632;23.298;2023-12-20T03:06:09;2.40;;;1.77;;
13032;SDS011;6583;42.632;23.298;2023-12-20T03:08:35;2.20;;;1.73;;
13032;SDS011;6583;42.632;23.298;2023-12-20T03:11:05;3.03;;;2.10;;
13032;SDS011;6583;42.632;23.298;2023-12-20T03:13:33;2.40;;;1.80;;
13032;SDS011;6583;42.632;23.298;2023-12-20T03:15:59;3.10;;;1.73;;
13032;SDS011;6583;42.632;23.298;2023-12-20T03:18:26;2.90;;;1.90;;
13032;SDS011;6583;42.632;23.298;2023-12-20T03:20:53;2.77;;;2.27;;
13032;SDS011;6583;42.632;23.298;2023-12-20T03:23:20;3.00;;;1.73;;
13032;SDS011;6583;42.632;23.298;2023-12-20T03:25:46;2.90;;;2.10;;
13032;SDS011;6583;42.632;23.298;2023-12-20T03:28:14;1.80;;;1.60;;
13032;SDS011;6583;42.632;23.298;2023-12-20T03:30:42;2.67;;;2.03;;
13032;SDS011;6583;42.632;23.298;2023-12-20T03:33:09;2.57;;;2.00;;
13032;SDS011;6583;42.632;23.298;2023-12-20T03:35:35;2.17;;;1.80;;
13032;SDS011;6583;42.632;23.298;2023-12-20T03:38:02;3.83;;;2.30;;
13032;SDS011;6583;42.632;23.298;2023-12-20T03:40:29;2.77;;;1.67;;
13032;SDS011;6583;42.632;23.298;2023-12-20T03:42:55;4.00;;;2.90;;
13032;SDS011;6583;42.632;23.298;2023-12-20T03:45:22;3.33;;;2.50;;
13032;SDS011;6583;42.632;23.298;2023-12-20T03:47:50;2.47;;;1.70;;
13032;SDS011;6583;42.632;23.298;2023-12-20T03:50:20;2.40;;;1.73;;
13032;SDS011;6583;42.632;23.298;2023-12-20T03:52:46;2.93;;;2.13;;
13032;SDS011;6583;42.632;23.298;2023-12-20T03:55:13;3.13;;;2.37;;
13032;SDS011;6583;42.632;23.298;2023-12-20T03:57:40;4.53;;;3.20;;
13032;SDS011;6583;42.632;23.298;2023-12-20T04:00:07;2.97;;;2.30;;
13032;SDS011;6583;42.632;23.298;2023-12-20T04:02:35;5.97;;;4.07;;
13032;SDS011;6583;42.632;23.298;2023-12-20T04:05:03;6.67;;;4.00;;
13032;SDS011;6583;42.632;23.298;2023-12-20T04:07:31;3.80;;;2.77;;
13032;SDS011;6583;42.632;23.298;2023-12-20T04:09:57;7.50;;;5.50;;
13032;SDS011;6583;42.632;23.298;2023-12-20T04:12:24;3.47;;;2.90;;
13032;SDS011;6583;42.632;23.298;2023-12-20T04:14:51;9.17;;;6.13;;
13032;SDS011;6583;42.632;23.298;2023-12-20T04:17:17;6.63;;;5.10;;
13032;SDS011;6583;42.632;23.298;2023-12-20T04:19:44;5.23;;;4.03;;
13032;SDS011;6583;42.632;23.298;2023-12-20T04:22:12;4.33;;;2.73;;
13032;SDS011;6583;42.632;23.298;2023-12-20T04:24:39;4.13;;;2.97;;
13032;SDS011;6583;42.632;23.298;2023-12-20T04:27:07;5.60;;;3.03;;
13032;SDS011;6583;42.632;23.298;2023-12-20T04:29:33;5.70;;;3.87;;
13032;SDS011;6583;42.632;23.298;2023-12-20T04:32:00;6.00;;;3.80;;
13032;SDS011;6583;42.632;23.298;2023-12-20T04:34:29;4.57;;;3.20;;
13032;SDS011;6583;42.632;23.298;2023-12-20T04:36:55;4.10;;;3.40;;
13032;SDS011;6583;42.632;23.298;2023-12-20T04:39:24;3.70;;;2.77;;
13032;SDS011;6583;42.632;23.298;2023-12-20T04:41:50;3.03;;;2.37;;
13032;SDS011;6583;42.632;23.298;2023-12-20T04:44:17;3.47;;;2.37;;
13032;SDS011;6583;42.632;23.298;2023-12-20T04:46:43;3.33;;;2.67;;
13032;SDS011;6583;42.632;23.298;2023-12-20T04:49:10;3.63;;;2.70;;
13032;SDS011;6583;42.632;23.298;2023-12-20T04:51:37;3.40;;;2.43;;
13032;SDS011;6583;42.632;23.298;2023-12-20T04:54:03;3.97;;;2.83;;
13032;SDS011;6583;42.632;23.298;2023-12-20T04:56:32;4.07;;;2.60;;
13032;SDS011;6583;42.632;23.298;2023-12-20T04:58:58;4.10;;;2.17;;
13032;SDS011;6583;42.632;23.298;2023-12-20T05:01:25;3.53;;;2.13;;
13032;SDS011;6583;42.632;23.298;2023-12-20T05:03:51;2.63;;;2.20;;
13032;SDS011;6583;42.632;23.298;2023-12-20T05:06:18;2.37;;;1.70;;
13032;SDS011;6583;42.632;23.298;2023-12-20T05:08:45;2.40;;;2.00;;
13032;SDS011;6583;42.632;23.298;2023-12-20T05:11:11;2.53;;;2.07;;
13032;SDS011;6583;42.632;23.298;2023-12-20T05:13:40;2.33;;;1.70;;
13032;SDS011;6583;42.632;23.298;2023-12-20T05:16:07;2.00;;;1.60;;
13032;SDS011;6583;42.632;23.298;2023-12-20T05:18:34;2.17;;;1.63;;
13032;SDS011;6583;42.632;23.298;2023-12-20T05:21:01;2.20;;;1.60;;
13032;SDS011;6583;42.632;23.298;2023-12-20T05:23:27;1.70;;;1.60;;
13032;SDS011;6583;42.632;23.298;2023-12-20T05:25:54;1.83;;;1.43;;
13032;SDS011;6583;42.632;23.298;2023-12-20T05:28:21;2.60;;;1.80;;
13032;SDS011;6583;42.632;23.298;2023-12-20T05:30:49;3.03;;;2.00;;
13032;SDS011;6583;42.632;23.298;2023-12-20T05:33:15;3.00;;;2.10;;
13032;SDS011;6583;42.632;23.298;2023-12-20T05:35:42;3.73;;;1.70;;
13032;SDS011;6583;42.632;23.298;2023-12-20T05:38:09;5.13;;;1.80;;
13032;SDS011;6583;42.632;23.298;2023-12-20T05:40:35;2.70;;;1.43;;
13032;SDS011;6583;42.632;23.298;2023-12-20T05:43:02;2.67;;;1.60;;
13032;SDS011;6583;42.632;23.298;2023-12-20T05:45:29;4.77;;;1.80;;
13032;SDS011;6583;42.632;23.298;2023-12-20T05:47:57;1.63;;;1.20;;
13032;SDS011;6583;42.632;23.298;2023-12-20T05:50:24;2.47;;;1.67;;
13032;SDS011;6583;42.632;23.298;2023-12-20T05:52:51;1.80;;;1.43;;
13032;SDS011;6583;42.632;23.298;2023-12-20T05:55:18;2.10;;;1.90;;
13032;SDS011;6583;42.632;23.298;2023-12-20T05:57:45;2.50;;;1.90;;
13032;SDS011;6583;42.632;23.298;2023-12-20T06:00:12;4.33;;;1.97;;
13032;SDS011;6583;42.632;23.298;2023-12-20T06:02:40;1.60;;;1.47;;
13032;SDS011;6583;42.632;23.298;2023-12-20T06:05:09;2.37;;;1.40;;
13032;SDS011;6583;42.632;23.298;2023-12-20T06:07:35;2.83;;;1.67;;
13032;SDS011;6583;42.632;23.298;2023-12-20T06:10:02;1.70;;;1.47;;
13032;SDS011;6583;42.632;23.298;2023-12-20T06:12:31;2.50;;;1.60;;
13032;SDS011;6583;42.632;23.298;2023-12-20T06:15:00;2.47;;;1.70;;
13032;SDS011;6583;42.632;23.298;2023-12-20T06:17:27;2.80;;;1.90;;
13032;SDS011;6583;42.632;23.298;2023-12-20T06:19:55;3.37;;;2.20;;
13032;SDS011;6583;42.632;23.298;2023-12-20T06:22:23;3.30;;;2.60;;
13032;SDS011;6583;42.632;23.298;2023-12-20T06:24:50;2.27;;;1.90;;
13032;SDS011;6583;42.632;23.298;2023-12-20T06:27:17;4.60;;;2.70;;
13032;SDS011;6583;42.632;23.298;2023-12-20T06:29:43;3.33;;;2.37;;
13032;SDS011;6583;42.632;23.298;2023-12-20T06:32:10;4.27;;;3.53;;
13032;SDS011;6583;42.632;23.298;2023-12-20T06:34:37;3.03;;;2.33;;
13032;SDS011;6583;42.632;23.298;2023-12-20T06:37:04;5.60;;;3.77;;
13032;SDS011;6583;42.632;23.298;2023-12-20T06:39:32;4.00;;;2.60;;
13032;SDS011;6583;42.632;23.298;2023-12-20T06:41:59;10.77;;;4.27;;
13032;SDS011;6583;42.632;23.298;2023-12-20T06:44:26;5.50;;;3.90;;
13032;SDS011;6583;42.632;23.298;2023-12-20T06:46:52;5.10;;;4.00;;
13032;SDS011;6583;42.632;23.298;2023-12-20T06:49:19;4.47;;;2.97;;
13032;SDS011;6583;42.632;23.298;2023-12-20T06:51:46;4.00;;;2.70;;
13032;SDS011;6583;42.632;23.298;2023-12-20T06:54:12;4.43;;;2.90;;
13032;SDS011;6583;42.632;23.298;2023-12-20T06:56:40;4.93;;;3.27;;
13032;SDS011;6583;42.632;23.298;2023-12-20T06:59:07;4.80;;;3.83;;
13032;SDS011;6583;42.632;23.298;2023-12-20T07:01:34;6.60;;;4.47;;
13032;SDS011;6583;42.632;23.298;2023-12-20T07:04:00;7.73;;;5.13;;
13032;SDS011;6583;42.632;23.298;2023-12-20T07:06:27;6.17;;;3.63;;
13032;SDS011;6583;42.632;23.298;2023-12-20T07:08:53;14.63;;;9.37;;
13032;SDS011;6583;42.632;23.298;2023-12-20T07:11:20;19.57;;;13.87;;
13032;SDS011;6583;42.632;23.298;2023-12-20T07:13:48;15.03;;;11.20;;
13032;SDS011;6583;42.632;23.298;2023-12-20T07:16:15;17.33;;;12.10;;
13032;SDS011;6583;42.632;23.298;2023-12-20T07:18:41;19.57;;;13.33;;
13032;SDS011;6583;42.632;23.298;2023-12-20T07:21:08;20.47;;;14.10;;
13032;SDS011;6583;42.632;23.298;2023-12-20T07:23:35;17.43;;;13.33;;
13032;SDS011;6583;42.632;23.298;2023-12-20T07:26:01;14.73;;;10.77;;
13032;SDS011;6583;42.632;23.298;2023-12-20T07:28:29;18.30;;;13.40;;
13032;SDS011;6583;42.632;23.298;2023-12-20T07:30:57;21.40;;;14.80;;
13032;SDS011;6583;42.632;23.298;2023-12-20T07:33:23;21.37;;;15.00;;
13032;SDS011;6583;42.632;23.298;2023-12-20T07:35:50;24.57;;;16.63;;
13032;SDS011;6583;42.632;23.298;2023-12-20T07:38:17;22.87;;;16.87;;
13032;SDS011;6583;42.632;23.298;2023-12-20T07:40:44;24.57;;;18.13;;
13032;SDS011;6583;42.632;23.298;2023-12-20T07:43:11;21.50;;;14.77;;
13032;SDS011;6583;42.632;23.298;2023-12-20T07:45:37;19.53;;;15.00;;
13032;SDS011;6583;42.632;23.298;2023-12-20T07:48:06;30.53;;;22.10;;
13032;SDS011;6583;42.632;23.298;2023-12-20T07:50:33;32.87;;;22.17;;
13032;SDS011;6583;42.632;23.298;2023-12-20T07:53:00;28.33;;;21.10;;
13032;SDS011;6583;42.632;23.298;2023-12-20T07:55:27;33.87;;;22.93;;
13032;SDS011;6583;42.632;23.298;2023-12-20T07:57:53;30.80;;;21.67;;
13032;SDS011;6583;42.632;23.298;2023-12-20T08:00:20;31.67;;;23.43;;
13032;SDS011;6583;42.632;23.298;2023-12-20T08:02:47;32.97;;;24.47;;
13032;SDS011;6583;42.632;23.298;2023-12-20T08:05:15;35.47;;;24.97;;
13032;SDS011;6583;42.632;23.298;2023-12-20T08:07:41;33.07;;;24.83;;
13032;SDS011;6583;42.632;23.298;2023-12-20T08:10:08;38.17;;;26.27;;
13032;SDS011;6583;42.632;23.298;2023-12-20T08:12:35;33.63;;;25.67;;
13032;SDS011;6583;42.632;23.298;2023-12-20T08:15:02;41.03;;;28.30;;
13032;SDS011;6583;42.632;23.298;2023-12-20T08:17:30;40.13;;;26.97;;
13032;SDS011;6583;42.632;23.298;2023-12-20T08:19:56;38.03;;;26.77;;
13032;SDS011;6583;42.632;23.298;2023-12-20T08:22:25;41.50;;;27.93;;
13032;SDS011;6583;42.632;23.298;2023-12-20T08:24:52;37.57;;;27.03;;
13032;SDS011;6583;42.632;23.298;2023-12-20T08:27:19;37.87;;;27.53;;
13032;SDS011;6583;42.632;23.298;2023-12-20T08:29:45;48.70;;;31.00;;
13032;SDS011;6583;42.632;23.298;2023-12-20T08:32:12;46.87;;;33.17;;
13032;SDS011;6583;42.632;23.298;2023-12-20T08:34:39;55.30;;;37.30;;
13032;SDS011;6583;42.632;23.298;2023-12-20T08:37:06;63.13;;;42.07;;
13032;SDS011;6583;42.632;23.298;2023-12-20T08:39:34;68.40;;;47.57;;
13032;SDS011;6583;42.632;23.298;2023-12-20T08:42:00;110.87;;;62.83;;
13032;SDS011;6583;42.632;23.298;2023-12-20T08:44:27;116.13;;;73.93;;
13032;SDS011;6583;42.632;23.298;2023-12-20T08:46:54;114.93;;;69.27;;
13032;SDS011;6583;42.632;23.298;2023-12-20T08:49:22;113.13;;;70.50;;
13032;SDS011;6583;42.632;23.298;2023-12-20T08:51:48;101.77;;;64.07;;
13032;SDS011;6583;42.632;23.298;2023-12-20T08:54:15;101.27;;;64.03;;
13032;SDS011;6583;42.632;23.298;2023-12-20T08:56:43;96.43;;;62.83;;
13032;SDS011;6583;42.632;23.298;2023-12-20T08:59:11;94.60;;;59.07;;
13032;SDS011;6583;42.632;23.298;2023-12-20T09:01:38;76.77;;;50.40;;
13032;SDS011;6583;42.632;23.298;2023-12-20T09:04:04;104.47;;;65.30;;
13032;SDS011;6583;42.632;23.298;2023-12-20T09:06:31;91.60;;;58.33;;
13032;SDS011;6583;42.632;23.298;2023-12-20T09:08:58;98.47;;;63.43;;
13032;SDS011;6583;42.632;23.298;2023-12-20T09:11:25;107.20;;;70.00;;
13032;SDS011;6583;42.632;23.298;2023-12-20T09:13:53;130.20;;;80.30;;
13032;SDS011;6583;42.632;23.298;2023-12-20T09:16:19;142.50;;;88.47;;
13032;SDS011;6583;42.632;23.298;2023-12-20T09:18:46;143.47;;;89.63;;
13032;SDS011;6583;42.632;23.298;2023-12-20T09:21:13;144.07;;;90.20;;
13032;SDS011;6583;42.632;23.298;2023-12-20T09:23:39;135.70;;;87.97;;
13032;SDS011;6583;42.632;23.298;2023-12-20T09:26:06;124.27;;;79.87;;
13032;SDS011;6583;42.632;23.298;2023-12-20T09:28:33;125.87;;;78.73;;
13032;SDS011;6583;42.632;23.298;2023-12-20T09:31:04;125.20;;;78.63;;
13032;SDS011;6583;42.632;23.298;2023-12-20T09:33:31;136.70;;;90.10;;
13032;SDS011;6583;42.632;23.298;2023-12-20T09:35:58;132.90;;;89.70;;
13032;SDS011;6583;42.632;23.298;2023-12-20T09:38:25;131.57;;;82.70;;
13032;SDS011;6583;42.632;23.298;2023-12-20T09:40:51;133.03;;;88.30;;
13032;SDS011;6583;42.632;23.298;2023-12-20T09:43:19;136.93;;;90.47;;
13032;SDS011;6583;42.632;23.298;2023-12-20T09:45:47;133.53;;;88.13;;
13032;SDS011;6583;42.632;23.298;2023-12-20T09:48:15;134.40;;;86.53;;
13032;SDS011;6583;42.632;23.298;2023-12-20T09:50:44;134.97;;;84.73;;
13032;SDS011;6583;42.632;23.298;2023-12-20T09:53:11;136.93;;;89.00;;
13032;SDS011;6583;42.632;23.298;2023-12-20T09:55:42;139.97;;;87.43;;
13032;SDS011;6583;42.632;23.298;2023-12-20T09:58:08;138.17;;;89.90;;
13032;SDS011;6583;42.632;23.298;2023-12-20T10:00:35;136.20;;;88.20;;
13032;SDS011;6583;42.632;23.298;2023-12-20T10:03:02;151.77;;;95.83;;
13032;SDS011;6583;42.632;23.298;2023-12-20T10:05:33;129.03;;;86.53;;
13032;SDS011;6583;42.632;23.298;2023-12-20T10:08:00;130.10;;;86.23;;
13032;SDS011;6583;42.632;23.298;2023-12-20T10:10:29;127.57;;;87.83;;
13032;SDS011;6583;42.632;23.298;2023-12-20T10:13:03;135.63;;;86.67;;
13032;SDS011;6583;42.632;23.298;2023-12-20T10:15:32;129.67;;;84.47;;
13032;SDS011;6583;42.632;23.298;2023-12-20T10:17:58;122.97;;;81.90;;
13032;SDS011;6583;42.632;23.298;2023-12-20T10:20:26;118.33;;;82.90;;
13032;SDS011;6583;42.632;23.298;2023-12-20T10:22:55;121.43;;;80.23;;
13032;SDS011;6583;42.632;23.298;2023-12-20T10:25:22;121.07;;;80.17;;
13032;SDS011;6583;42.632;23.298;2023-12-20T10:27:50;123.50;;;81.50;;
13032;SDS011;6583;42.632;23.298;2023-12-20T10:30:34;117.43;;;79.10;;
13032;SDS011;6583;42.632;23.298;2023-12-20T10:33:01;113.07;;;75.20;;
13032;SDS011;6583;42.632;23.298;2023-12-20T10:35:27;118.40;;;78.57;;
13032;SDS011;6583;42.632;23.298;2023-12-20T10:37:56;120.40;;;81.93;;
13032;SDS011;6583;42.632;23.298;2023-12-20T10:40:22;126.10;;;82.60;;
13032;SDS011;6583;42.632;23.298;2023-12-20T10:42:51;119.20;;;78.93;;
13032;SDS011;6583;42.632;23.298;2023-12-20T10:45:18;105.83;;;69.10;;
13032;SDS011;6583;42.632;23.298;2023-12-20T10:47:45;101.93;;;66.87;;
13032;SDS011;6583;42.632;23.298;2023-12-20T10:50:13;103.47;;;67.43;;
13032;SDS011;6583;42.632;23.298;2023-12-20T10:52:40;102.30;;;69.03;;
13032;SDS011;6583;42.632;23.298;2023-12-20T10:55:10;105.97;;;71.00;;
13032;SDS011;6583;42.632;23.298;2023-12-20T11:20:11;114.07;;;82.20;;
13032;SDS011;6583;42.632;23.298;2023-12-20T11:22:38;114.93;;;78.83;;
13032;SDS011;6583;42.632;23.298;2023-12-20T11:25:17;114.30;;;75.30;;
13032;SDS011;6583;42.632;23.298;2023-12-20T11:27:44;114.23;;;75.97;;
13032;SDS011;6583;42.632;23.298;2023-12-20T11:30:40;114.53;;;73.53;;
13032;SDS011;6583;42.632;23.298;2023-12-20T11:33:07;112.47;;;74.30;;
13032;SDS011;6583;42.632;23.298;2023-12-20T11:35:36;109.73;;;72.93;;
13032;SDS011;6583;42.632;23.298;2023-12-20T11:38:04;108.90;;;71.03;;
13032;SDS011;6583;42.632;23.298;2023-12-20T11:40:34;109.87;;;71.33;;
13032;SDS011;6583;42.632;23.298;2023-12-20T11:43:04;107.17;;;72.33;;
13032;SDS011;6583;42.632;23.298;2023-12-20T11:45:31;108.97;;;72.10;;
13032;SDS011;6583;42.632;23.298;2023-12-20T11:47:58;115.10;;;74.43;;
13032;SDS011;6583;42.632;23.298;2023-12-20T11:50:24;103.33;;;72.27;;
13032;SDS011;6583;42.632;23.298;2023-12-20T11:52:53;108.87;;;71.53;;
13032;SDS011;6583;42.632;23.298;2023-12-20T11:55:20;104.93;;;66.93;;
13032;SDS011;6583;42.632;23.298;2023-12-20T11:57:47;107.33;;;70.20;;
13032;SDS011;6583;42.632;23.298;2023-12-20T12:00:14;103.10;;;66.73;;
13032;SDS011;6583;42.632;23.298;2023-12-20T12:02:41;109.17;;;66.43;;
13032;SDS011;6583;42.632;23.298;2023-12-20T12:05:07;107.30;;;69.73;;
13032;SDS011;6583;42.632;23.298;2023-12-20T12:07:34;112.00;;;69.33;;
13032;SDS011;6583;42.632;23.298;2023-12-20T12:10:03;105.03;;;68.50;;
13032;SDS011;6583;42.632;23.298;2023-12-20T12:12:30;105.43;;;68.33;;
13032;SDS011;6583;42.632;23.298;2023-12-20T12:14:57;108.27;;;70.27;;
13032;SDS011;6583;42.632;23.298;2023-12-20T12:17:24;113.20;;;68.80;;
13032;SDS011;6583;42.632;23.298;2023-12-20T12:19:52;102.53;;;66.83;;
13032;SDS011;6583;42.632;23.298;2023-12-20T12:22:29;105.13;;;68.03;;
13032;SDS011;6583;42.632;23.298;2023-12-20T12:24:58;106.67;;;70.10;;
13032;SDS011;6583;42.632;23.298;2023-12-20T12:27:28;112.97;;;71.30;;
13032;SDS011;6583;42.632;23.298;2023-12-20T12:30:01;113.47;;;71.93;;
13032;SDS011;6583;42.632;23.298;2023-12-20T12:32:32;106.30;;;68.63;;
13032;SDS011;6583;42.632;23.298;2023-12-20T12:34:59;109.07;;;66.93;;
13032;SDS011;6583;42.632;23.298;2023-12-20T12:37:26;103.20;;;66.30;;
13032;SDS011;6583;42.632;23.298;2023-12-20T12:39:53;95.33;;;64.03;;
13032;SDS011;6583;42.632;23.298;2023-12-20T12:42:19;93.23;;;58.60;;
13032;SDS011;6583;42.632;23.298;2023-12-20T12:44:48;71.80;;;51.03;;
13032;SDS011;6583;42.632;23.298;2023-12-20T12:47:14;72.63;;;47.93;;
13032;SDS011;6583;42.632;23.298;2023-12-20T12:49:41;63.80;;;45.27;;
13032;SDS011;6583;42.632;23.298;2023-12-20T12:52:08;66.97;;;48.10;;
13032;SDS011;6583;42.632;23.298;2023-12-20T12:54:34;73.63;;;47.47;;
13032;SDS011;6583;42.632;23.298;2023-12-20T12:57:01;62.33;;;42.13;;
13032;SDS011;6583;42.632;23.298;2023-12-20T12:59:28;54.60;;;38.80;;
13032;SDS011;6583;42.632;23.298;2023-12-20T13:01:56;48.17;;;32.63;;
13032;SDS011;6583;42.632;23.298;2023-12-20T13:04:23;42.27;;;29.50;;
13032;SDS011;6583;42.632;23.298;2023-12-20T13:06:50;36.87;;;25.50;;
13032;SDS011;6583;42.632;23.298;2023-12-20T13:09:16;48.90;;;34.87;;
13032;SDS011;6583;42.632;23.298;2023-12-20T13:11:44;43.73;;;30.10;;
13032;SDS011;6583;42.632;23.298;2023-12-20T13:14:10;38.80;;;27.97;;
13032;SDS011;6583;42.632;23.298;2023-12-20T13:16:40;43.87;;;30.70;;
13032;SDS011;6583;42.632;23.298;2023-12-20T13:19:07;43.83;;;29.93;;
13032;SDS011;6583;42.632;23.298;2023-12-20T13:42:52;39.90;;;29.63;;
13032;SDS011;6583;42.632;23.298;2023-12-20T13:45:20;38.73;;;29.23;;
13032;SDS011;6583;42.632;23.298;2023-12-20T13:47:47;35.67;;;26.20;;
13032;SDS011;6583;42.632;23.298;2023-12-20T13:50:14;36.73;;;25.40;;
13032;SDS011;6583;42.632;23.298;2023-12-20T13:52:41;40.13;;;28.60;;
13032;SDS011;6583;42.632;23.298;2023-12-20T13:55:08;35.80;;;25.77;;
13032;SDS011;6583;42.632;23.298;2023-12-20T13:57:35;27.77;;;18.97;;
13032;SDS011;6583;42.632;23.298;2023-12-20T14:00:06;18.57;;;14.27;;
13032;SDS011;6583;42.632;23.298;2023-12-20T14:02:39;13.70;;;10.03;;
13032;SDS011;6583;42.632;23.298;2023-12-20T14:05:06;10.90;;;8.30;;
13032;SDS011;6583;42.632;23.298;2023-12-20T14:07:33;10.73;;;8.37;;
13032;SDS011;6583;42.632;23.298;2023-12-20T14:09:59;8.23;;;5.07;;
13032;SDS011;6583;42.632;23.298;2023-12-20T14:31:37;5.90;;;4.73;;
13032;SDS011;6583;42.632;23.298;2023-12-20T14:34:05;7.37;;;6.33;;
13032;SDS011;6583;42.632;23.298;2023-12-20T14:36:33;5.00;;;4.40;;
13032;SDS011;6583;42.632;23.298;2023-12-20T14:39:00;5.70;;;4.40;;
13032;SDS011;6583;42.632;23.298;2023-12-20T14:41:28;4.50;;;3.70;;
13032;SDS011;6583;42.632;23.298;2023-12-20T14:43:54;10.57;;;8.37;;
13032;SDS011;6583;42.632;23.298;2023-12-20T14:46:21;8.20;;;7.37;;
13032;SDS011;6583;42.632;23.298;2023-12-20T14:48:49;8.47;;;7.10;;
13032;SDS011;6583;42.632;23.298;2023-12-20T14:51:16;13.50;;;10.30;;
13032;SDS011;6583;42.632;23.298;2023-12-20T14:53:42;8.70;;;7.90;;
13032;SDS011;6583;42.632;23.298;2023-12-20T14:56:09;11.00;;;6.93;;
13032;SDS011;6583;42.632;23.298;2023-12-20T14:58:36;8.93;;;7.53;;
13032;SDS011;6583;42.632;23.298;2023-12-20T15:01:03;6.77;;;5.50;;
13032;SDS011;6583;42.632;23.298;2023-12-20T15:03:32;7.50;;;6.30;;
13032;SDS011;6583;42.632;23.298;2023-12-20T15:06:00;8.33;;;6.80;;
13032;SDS011;6583;42.632;23.298;2023-12-20T15:08:27;9.70;;;6.83;;
13032;SDS011;6583;42.632;23.298;2023-12-20T15:10:53;6.87;;;5.40;;
13032;SDS011;6583;42.632;23.298;2023-12-20T15:13:20;8.03;;;5.90;;
13032;SDS011;6583;42.632;23.298;2023-12-20T15:15:47;10.43;;;7.73;;
13032;SDS011;6583;42.632;23.298;2023-12-20T15:18:13;9.03;;;7.37;;
13032;SDS011;6583;42.632;23.298;2023-12-20T15:20:40;9.67;;;7.63;;
13032;SDS011;6583;42.632;23.298;2023-12-20T15:23:10;9.60;;;7.27;;
13032;SDS011;6583;42.632;23.298;2023-12-20T15:25:36;7.53;;;6.30;;
13032;SDS011;6583;42.632;23.298;2023-12-20T15:28:03;8.77;;;6.50;;
13032;SDS011;6583;42.632;23.298;2023-12-20T15:30:30;7.60;;;6.00;;
13032;SDS011;6583;42.632;23.298;2023-12-20T15:32:57;9.70;;;6.57;;
13032;SDS011;6583;42.632;23.298;2023-12-20T15:35:23;6.73;;;5.77;;
13032;SDS011;6583;42.632;23.298;2023-12-20T15:37:50;8.90;;;6.70;;